Congonhas Airport

SBSP · São Paulo, 巴西

罗盘
风向 的 风向 的 风向 到 风向 020° 孔戈尼亚斯/圣保罗机场 17R/35L
风: 7 kt, 3 beaufort

4 kt

6 kt
改变
0 ft 1.000 2.000 3.000 4.000 5.000
Cloud Cloud Cloud Cloud Cloud Cloud
BKN 2.600
METAR SBSP 221400Z 02007KT 330V060 9999 BKN026 27/19 Q1015

METAR 孔戈尼亚斯/圣保罗机场 - SBSP/CGH

孔戈尼亚斯/圣保罗机场是,巴西中的中型机场。 该机场位于纬度-23,62695和经度-46,65503。 该机场有2条跑道: 17R/35L 和 17L/35R. 本场的ICAO机场代码为SBSP。 该机场的IATA代码为CGH。 机场在Curitiba FIR中。

该航空气象观测是针对孔戈尼亚斯/圣保罗机场在2024年2月22日 11:00, 当地时间进行的。

机场观察

风向为020°,速度为7 kt。 风向在330°和060°之间变化。

可见度为10 km 或者更多。

有碎云在2.600 ft的高度。 破损或更高的上限为2.600 ft。

温度和风寒是27 °C。 热指数为28。 露点为19 °C,相对湿度为62%。 海平面上的气压为1015 hPa (QNH)。

白天

今天,太阳从05:58升起,在18:42降落。 这适用于孔戈尼亚斯/圣保罗机场,世界夏令时可能有所不同。 当地时间与世界标准时间之间的时差为-3 小时。 当前,没有夏令时有效。

公司介绍

这个机场上的公司有Waypoint Aviation 和 Latamv。

体会

到Vliegles.nl去找飞行课程,跳伞和其他飞行体验。 浏览页面,了解孔戈尼亚斯/圣保罗机场附近所有可用的活动。 你也可以使用搜索功能来寻找你所在地附近的特定飞行课程、跳伞或其他飞行体验。

跑道

Id 标题 侧风 逆风 侧风 %
17R/35L 148°-328° 6 kt 4 kt 79 %
17L/35R 148°-328° 6 kt 4 kt 79 %

逆风成分最大的方向会被突出显示,并用于横风计算。 这并不一定意味着这个方向在使用。

乌云

2.600 ft BKN 碎云

温度 & 天气

温度 27 °C
露点 19 °C
相对湿度 62%
热度指数 28 °C
Kp-index 1 (0-9)

白天

日出
05:58
中午
12:20
日落
18:42 (7:16)

小工具

你想在你的网站上有一个关于孔戈尼亚斯/圣保罗机场的当前航空天气(METAR)的小部件吗?

显示HTML代码
?>